createdAt,value
2018-09-06T00:00:12.774Z,77.23
2018-09-06T00:00:43.957Z,77.73
2018-09-06T00:01:15.077Z,77.75
2018-09-06T00:01:46.237Z,77.16
2018-09-06T00:02:17.367Z,76.99
2018-09-06T00:02:48.490Z,77.50
2018-09-06T00:03:19.670Z,77.32
2018-09-06T00:03:50.866Z,77.08
2018-09-06T00:04:22.054Z,77.38
2018-09-06T00:04:53.252Z,77.28
2018-09-06T00:05:24.331Z,77.33
2018-09-06T00:05:55.520Z,77.55
2018-09-06T00:06:26.648Z,77.67
2018-09-06T00:06:57.866Z,76.77
2018-09-06T00:07:29.057Z,76.98
2018-09-06T00:08:00.238Z,77.52
2018-09-06T00:08:31.539Z,77.12
2018-09-06T00:09:02.733Z,76.72
2018-09-06T00:09:33.924Z,76.88
2018-09-06T00:10:05.051Z,76.85
2018-09-06T00:10:36.179Z,76.55
2018-09-06T00:11:07.404Z,77.11
2018-09-06T00:11:38.544Z,76.78
2018-09-06T00:12:09.726Z,77.19
2018-09-06T00:12:40.861Z,76.63
2018-09-06T00:13:12.021Z,76.80
2018-09-06T00:13:43.166Z,76.94
2018-09-06T00:14:14.335Z,77.26
2018-09-06T00:14:45.520Z,76.84
2018-09-06T00:15:16.648Z,76.46
2018-09-06T00:15:47.779Z,77.05
2018-09-06T00:16:18.912Z,77.08
2018-09-06T00:16:50.038Z,76.15
2018-09-06T00:17:21.209Z,76.69
2018-09-06T00:17:52.342Z,77.16
2018-09-06T00:18:23.503Z,77.56
2018-09-06T00:18:54.747Z,77.05
2018-09-06T00:19:25.872Z,76.53
2018-09-06T00:19:57.000Z,77.07
2018-09-06T00:20:28.125Z,77.20
2018-09-06T00:20:59.297Z,76.77
2018-09-06T00:21:30.463Z,76.56
2018-09-06T00:22:01.637Z,76.93
2018-09-06T00:22:32.764Z,77.05
2018-09-06T00:23:03.945Z,76.80
2018-09-06T00:23:35.213Z,77.27
2018-09-06T00:24:06.394Z,76.98
2018-09-06T00:24:37.531Z,76.98
2018-09-06T00:25:08.701Z,76.62
2018-09-06T00:25:39.840Z,76.29
2018-09-06T00:26:11.031Z,76.39
2018-09-06T00:26:42.151Z,76.48
2018-09-06T00:27:13.274Z,75.86
2018-09-06T00:27:44.390Z,75.51
2018-09-06T00:28:15.509Z,76.18
2018-09-06T00:28:46.804Z,75.46
2018-09-06T00:29:17.933Z,76.30
2018-09-06T00:29:49.073Z,75.67
2018-09-06T00:30:20.262Z,75.99
2018-09-06T00:30:51.494Z,75.60
2018-09-06T00:31:22.694Z,75.41
2018-09-06T00:31:53.882Z,74.76
2018-09-06T00:32:25.133Z,75.36
2018-09-06T00:32:56.313Z,75.88
2018-09-06T00:33:27.455Z,75.72
2018-09-06T00:33:58.687Z,75.03
2018-09-06T00:34:29.815Z,75.51
2018-09-06T00:35:00.995Z,75.53
2018-09-06T00:35:32.132Z,74.79
2018-09-06T00:36:03.311Z,75.33
2018-09-06T00:36:34.533Z,74.53
2018-09-06T00:37:05.664Z,75.08
2018-09-06T00:37:36.844Z,75.20
2018-09-06T00:38:08.033Z,74.80
2018-09-06T00:38:39.213Z,74.60
2018-09-06T00:39:10.337Z,74.29
2018-09-06T00:39:41.588Z,74.31
2018-09-06T00:40:12.717Z,74.35
2018-09-06T00:40:43.839Z,74.58
2018-09-06T00:41:15.070Z,74.07
2018-09-06T00:41:46.294Z,74.97
2018-09-06T00:42:17.493Z,74.54
2018-09-06T00:42:48.628Z,74.39
2018-09-06T00:43:19.862Z,74.15
2018-09-06T00:43:51.049Z,74.69
2018-09-06T00:44:22.177Z,74.08
2018-09-06T00:44:53.606Z,74.61
2018-09-06T00:45:24.781Z,73.91
2018-09-06T00:45:56.111Z,73.99
2018-09-06T00:46:27.250Z,73.34
2018-09-06T00:46:58.375Z,73.30
2018-09-06T00:47:29.565Z,73.52
2018-09-06T00:48:00.696Z,72.82
2018-09-06T00:48:31.942Z,72.55
2018-09-06T00:49:03.176Z,72.78
2018-09-06T00:49:34.429Z,72.64
2018-09-06T00:50:05.628Z,72.64
2018-09-06T00:50:36.877Z,73.59
2018-09-06T00:51:08.169Z,73.65
2018-09-06T00:51:39.297Z,73.07
2018-09-06T00:52:10.537Z,73.07
2018-09-06T00:52:41.656Z,73.22
2018-09-06T00:53:12.763Z,72.94
2018-09-06T00:53:43.876Z,73.22
2018-09-06T00:54:14.993Z,73.15
2018-09-06T00:54:46.157Z,73.86
2018-09-06T00:55:17.351Z,73.01
2018-09-06T00:55:48.479Z,73.52
2018-09-06T00:56:19.700Z,73.73
2018-09-06T00:56:50.875Z,73.78
2018-09-06T00:57:21.994Z,73.75
2018-09-06T00:57:53.120Z,73.77
2018-09-06T00:58:24.289Z,73.57
2018-09-06T00:58:55.417Z,73.38
2018-09-06T00:59:26.571Z,73.34
2018-09-06T00:59:57.690Z,73.28
2018-09-06T01:00:28.805Z,74.11
2018-09-06T01:00:59.997Z,72.86
2018-09-06T01:01:31.140Z,73.55
2018-09-06T01:02:02.263Z,73.52
2018-09-06T01:02:33.384Z,72.64
2018-09-06T01:03:04.552Z,72.47
2018-09-06T01:03:35.667Z,72.10
2018-09-06T01:04:06.789Z,71.80
2018-09-06T01:04:38.078Z,72.47
2018-09-06T01:05:09.208Z,72.40
2018-09-06T01:05:40.393Z,72.33
2018-09-06T01:06:11.517Z,71.92
2018-09-06T01:06:42.668Z,72.69
2018-09-06T01:07:13.835Z,71.96
2018-09-06T01:07:45.031Z,72.21
2018-09-06T01:08:16.223Z,72.34
2018-09-06T01:08:47.494Z,72.39
2018-09-06T01:09:18.664Z,72.46
2018-09-06T01:09:49.839Z,71.85
2018-09-06T01:10:21.023Z,72.35
2018-09-06T01:10:52.222Z,71.82
2018-09-06T01:11:23.387Z,71.52
2018-09-06T01:11:54.568Z,71.82
2018-09-06T01:12:25.744Z,71.54
2018-09-06T01:12:56.902Z,72.12
2018-09-06T01:13:28.056Z,72.09
2018-09-06T01:13:59.233Z,71.80
2018-09-06T01:14:30.425Z,71.75
2018-09-06T01:15:01.648Z,71.82
2018-09-06T01:15:32.783Z,71.92
2018-09-06T01:16:03.968Z,71.95
2018-09-06T01:16:35.111Z,71.96
2018-09-06T01:17:06.282Z,71.64
2018-09-06T01:17:37.410Z,72.14
2018-09-06T01:18:08.535Z,71.94
2018-09-06T01:18:39.676Z,72.09
2018-09-06T01:19:10.795Z,71.48
2018-09-06T01:19:41.999Z,71.61
2018-09-06T01:20:13.183Z,71.53
2018-09-06T01:20:44.300Z,71.69
2018-09-06T01:21:15.421Z,71.69
2018-09-06T01:21:46.651Z,71.44
2018-09-06T01:22:17.772Z,71.23
2018-09-06T01:22:48.936Z,71.16
2018-09-06T01:23:20.110Z,70.99
2018-09-06T01:23:51.247Z,70.84
2018-09-06T01:24:22.363Z,70.83
2018-09-06T01:24:53.533Z,71.06
2018-09-06T01:25:24.651Z,70.87
2018-09-06T01:25:55.769Z,70.96
2018-09-06T01:26:26.912Z,70.46
2018-09-06T01:26:58.029Z,71.03
2018-09-06T01:27:29.210Z,70.78
2018-09-06T01:28:00.367Z,71.29
2018-09-06T01:28:31.586Z,71.03
2018-09-06T01:29:02.736Z,71.55
2018-09-06T01:29:33.851Z,71.34
2018-09-06T01:30:04.964Z,71.50
2018-09-06T01:30:36.149Z,71.37
2018-09-06T01:31:07.325Z,71.45
2018-09-06T01:31:38.501Z,71.47
2018-09-06T01:32:09.680Z,71.46
2018-09-06T01:32:40.836Z,71.75
2018-09-06T01:33:12.021Z,71.18
2018-09-06T01:33:43.135Z,71.33
2018-09-06T01:34:14.573Z,71.56
2018-09-06T01:34:45.744Z,71.53
2018-09-06T01:35:16.880Z,71.31
2018-09-06T01:35:48.052Z,71.54
2018-09-06T01:36:19.563Z,70.63
2018-09-06T01:36:50.679Z,70.59
2018-09-06T01:37:21.848Z,71.27
2018-09-06T01:37:52.980Z,70.51
2018-09-06T01:38:24.209Z,70.82
2018-09-06T01:38:55.397Z,70.35
2018-09-06T01:39:26.513Z,69.77
2018-09-06T01:39:57.627Z,70.52
2018-09-06T01:40:28.798Z,70.41
2018-09-06T01:41:00.076Z,70.11
2018-09-06T01:41:31.263Z,70.06
2018-09-06T01:42:02.383Z,70.42
2018-09-06T01:42:33.552Z,70.12
2018-09-06T01:43:04.711Z,70.40
2018-09-06T01:43:35.941Z,69.72
2018-09-06T01:44:07.066Z,70.29
2018-09-06T01:44:38.200Z,70.36
2018-09-06T01:45:09.385Z,70.23
2018-09-06T01:45:40.520Z,70.07
2018-09-06T01:46:11.689Z,70.25
2018-09-06T01:46:42.805Z,69.73
2018-09-06T01:47:13.941Z,69.42
2018-09-06T01:47:45.137Z,70.33
2018-09-06T01:48:16.343Z,69.73
2018-09-06T01:48:47.530Z,70.02
2018-09-06T01:49:18.643Z,69.77
2018-09-06T01:49:49.835Z,69.95
2018-09-06T01:50:21.007Z,70.37
2018-09-06T01:50:52.245Z,69.73
2018-09-06T01:51:23.432Z,69.86
2018-09-06T01:51:54.544Z,70.19
2018-09-06T01:52:25.659Z,69.90
2018-09-06T01:52:56.772Z,69.92
2018-09-06T01:53:27.979Z,69.80
2018-09-06T01:53:59.152Z,70.38
2018-09-06T01:54:30.325Z,70.29
2018-09-06T01:55:01.532Z,70.08
2018-09-06T01:55:32.717Z,69.70
2018-09-06T01:56:03.898Z,70.07
2018-09-06T01:56:35.074Z,70.48
2018-09-06T01:57:06.304Z,69.96
2018-09-06T01:57:37.439Z,69.51
2018-09-06T01:58:08.613Z,70.04
2018-09-06T01:58:39.780Z,69.11
2018-09-06T01:59:10.940Z,69.98
2018-09-06T01:59:42.116Z,69.31
2018-09-06T02:00:13.278Z,69.83
2018-09-06T02:00:44.400Z,69.16
2018-09-06T02:01:15.568Z,69.21
2018-09-06T02:01:46.741Z,69.05
2018-09-06T02:02:17.858Z,69.80
2018-09-06T02:02:49.003Z,69.52
2018-09-06T02:03:20.177Z,69.56
2018-09-06T02:03:51.351Z,69.15
2018-09-06T02:04:22.517Z,69.24
2018-09-06T02:04:53.689Z,69.28
2018-09-06T02:05:24.891Z,68.78
2018-09-06T02:05:56.000Z,69.22
2018-09-06T02:06:27.117Z,69.29
2018-09-06T02:06:58.239Z,69.38
2018-09-06T02:07:29.353Z,69.64
2018-09-06T02:08:00.465Z,69.79
2018-09-06T02:08:31.584Z,69.42
2018-09-06T02:09:02.797Z,68.81
2018-09-06T02:09:33.973Z,69.37
2018-09-06T02:10:05.116Z,69.56
2018-09-06T02:10:36.364Z,70.01
2018-09-06T02:11:07.504Z,69.79
2018-09-06T02:11:38.668Z,69.72
2018-09-06T02:12:09.845Z,69.30
2018-09-06T02:12:40.991Z,69.88
2018-09-06T02:13:12.179Z,69.50
2018-09-06T02:13:43.364Z,69.84
2018-09-06T02:14:14.593Z,69.77
2018-09-06T02:14:45.715Z,69.52
2018-09-06T02:15:16.885Z,70.30
2018-09-06T02:15:48.144Z,69.49
2018-09-06T02:16:19.274Z,70.17
2018-09-06T02:16:50.396Z,70.30
2018-09-06T02:17:21.517Z,70.37
2018-09-06T02:17:52.733Z,70.08
2018-09-06T02:18:23.931Z,70.52
2018-09-06T02:18:55.051Z,70.42
2018-09-06T02:19:26.167Z,69.48
2018-09-06T02:19:57.323Z,69.73
2018-09-06T02:20:28.484Z,69.85
2018-09-06T02:20:59.733Z,69.77
2018-09-06T02:21:30.916Z,69.33
2018-09-06T02:22:02.038Z,69.53
2018-09-06T02:22:33.232Z,69.72
2018-09-06T02:23:04.409Z,69.67
2018-09-06T02:23:35.600Z,68.86
2018-09-06T02:24:06.863Z,68.96
2018-09-06T02:24:38.052Z,68.98
2018-09-06T02:25:09.264Z,69.49
2018-09-06T02:25:40.544Z,69.04
2018-09-06T02:26:11.740Z,68.61
2018-09-06T02:26:42.974Z,68.78
2018-09-06T02:27:14.157Z,68.79
2018-09-06T02:27:45.319Z,67.72
2018-09-06T02:28:16.440Z,68.03
2018-09-06T02:28:47.689Z,68.21
2018-09-06T02:29:18.864Z,68.17
2018-09-06T02:29:49.987Z,68.40
2018-09-06T02:30:21.109Z,68.63
2018-09-06T02:30:52.233Z,68.35
2018-09-06T02:31:23.417Z,68.54
2018-09-06T02:31:54.577Z,68.58
2018-09-06T02:32:25.744Z,68.77
2018-09-06T02:32:56.960Z,67.97
2018-09-06T02:33:28.186Z,67.88
2018-09-06T02:33:59.329Z,67.82
2018-09-06T02:34:30.439Z,68.17
2018-09-06T02:35:01.714Z,68.25
2018-09-06T02:35:32.836Z,67.62
2018-09-06T02:36:04.067Z,68.27
2018-09-06T02:36:35.269Z,68.20
2018-09-06T02:37:06.456Z,67.57
2018-09-06T02:37:37.626Z,67.59
2018-09-06T02:38:08.863Z,68.00
2018-09-06T02:38:40.042Z,67.25
2018-09-06T02:39:11.233Z,67.51
2018-09-06T02:39:42.397Z,68.06
2018-09-06T02:40:13.579Z,67.51
2018-09-06T02:40:44.758Z,68.02
2018-09-06T02:41:15.931Z,68.06
2018-09-06T02:41:47.135Z,67.30
2018-09-06T02:42:18.316Z,67.68
2018-09-06T02:42:49.494Z,67.23
2018-09-06T02:43:20.622Z,67.10
2018-09-06T02:43:51.804Z,66.89
2018-09-06T02:44:22.929Z,67.71
2018-09-06T02:44:54.083Z,67.79
2018-09-06T02:45:25.263Z,67.71
2018-09-06T02:45:56.434Z,67.25
2018-09-06T02:46:27.553Z,66.79
2018-09-06T02:46:58.794Z,67.65
2018-09-06T02:47:30.030Z,67.29
2018-09-06T02:48:01.151Z,67.58
2018-09-06T02:48:32.330Z,67.99
2018-09-06T02:49:03.461Z,67.51
2018-09-06T02:49:34.645Z,68.44
2018-09-06T02:50:05.876Z,68.52
2018-09-06T02:50:37.103Z,68.14
2018-09-06T02:51:08.319Z,68.03
2018-09-06T02:51:39.508Z,67.87
2018-09-06T02:52:10.781Z,68.46
2018-09-06T02:52:41.972Z,68.83
2018-09-06T02:53:13.140Z,68.87
2018-09-06T02:53:44.271Z,68.90
2018-09-06T02:54:15.436Z,68.89
2018-09-06T02:54:46.644Z,68.61
2018-09-06T02:55:17.804Z,68.17
2018-09-06T02:55:48.989Z,68.50
2018-09-06T02:56:20.208Z,68.67
2018-09-06T02:56:51.417Z,68.13
2018-09-06T02:57:22.592Z,68.00
2018-09-06T02:57:53.725Z,68.15
2018-09-06T02:58:24.906Z,68.47
2018-09-06T02:58:56.022Z,68.82
2018-09-06T02:59:27.188Z,68.83
2018-09-06T02:59:58.414Z,68.40
2018-09-06T03:00:29.544Z,68.63
2018-09-06T03:01:00.668Z,68.23
2018-09-06T03:01:31.784Z,67.86
2018-09-06T03:02:03.005Z,68.05
2018-09-06T03:02:34.127Z,68.00
2018-09-06T03:03:05.296Z,68.13
2018-09-06T03:03:36.411Z,67.70
2018-09-06T03:04:07.584Z,68.13
2018-09-06T03:04:38.764Z,67.82
2018-09-06T03:05:09.977Z,68.24
2018-09-06T03:05:41.160Z,68.27
2018-09-06T03:06:12.340Z,68.32
2018-09-06T03:06:43.516Z,67.61
2018-09-06T03:07:14.639Z,68.01
2018-09-06T03:07:45.749Z,67.90
2018-09-06T03:08:17.029Z,67.29
2018-09-06T03:08:48.212Z,67.23
2018-09-06T03:09:19.342Z,68.11
2018-09-06T03:09:50.505Z,67.45
2018-09-06T03:10:21.637Z,67.57
2018-09-06T03:10:52.763Z,68.12
2018-09-06T03:11:24.001Z,68.37
2018-09-06T03:11:55.224Z,67.66
2018-09-06T03:12:26.344Z,68.23
2018-09-06T03:12:57.517Z,68.58
2018-09-06T03:13:28.640Z,68.43
2018-09-06T03:13:59.750Z,68.03
2018-09-06T03:14:30.925Z,68.21
2018-09-06T03:15:02.114Z,67.81
2018-09-06T03:15:33.323Z,67.90
2018-09-06T03:16:04.498Z,67.93
2018-09-06T03:16:35.672Z,67.97
2018-09-06T03:17:06.847Z,68.24
2018-09-06T03:17:37.965Z,68.21
2018-09-06T03:18:09.179Z,68.68
2018-09-06T03:18:40.298Z,67.85
2018-09-06T03:19:11.478Z,68.38
2018-09-06T03:19:42.647Z,68.20
2018-09-06T03:20:13.829Z,68.51
2018-09-06T03:20:44.950Z,68.57
2018-09-06T03:21:16.093Z,68.30
2018-09-06T03:21:47.303Z,68.09
2018-09-06T03:22:18.455Z,67.97
2018-09-06T03:22:49.679Z,68.61
2018-09-06T03:23:20.854Z,68.46
2018-09-06T03:23:52.034Z,68.56
2018-09-06T03:24:23.224Z,67.93
2018-09-06T03:24:54.405Z,67.67
2018-09-06T03:25:25.689Z,67.94
2018-09-06T03:25:56.865Z,68.66
2018-09-06T03:26:28.120Z,68.04
2018-09-06T03:27:00.187Z,69.11
2018-09-06T03:27:31.348Z,68.27
2018-09-06T03:28:02.556Z,68.12
2018-09-06T03:28:33.736Z,68.32
2018-09-06T03:29:04.918Z,68.49
2018-09-06T03:29:36.038Z,68.62
2018-09-06T03:30:07.219Z,67.94
2018-09-06T03:30:38.404Z,68.04
2018-09-06T03:31:09.538Z,68.00
2018-09-06T03:31:40.680Z,68.69
2018-09-06T03:32:11.895Z,67.84
2018-09-06T03:32:43.020Z,68.80
2018-09-06T03:33:14.236Z,68.26
2018-09-06T03:33:45.349Z,68.24
2018-09-06T03:34:16.480Z,68.12
2018-09-06T03:34:47.599Z,68.88
2018-09-06T03:35:18.781Z,68.57
2018-09-06T03:35:49.951Z,68.19
2018-09-06T03:36:21.075Z,68.46
2018-09-06T03:36:52.255Z,69.12
2018-09-06T03:37:23.472Z,69.20
2018-09-06T03:37:54.594Z,68.95
2018-09-06T03:38:25.801Z,68.84
2018-09-06T03:38:56.927Z,69.02
2018-09-06T03:39:28.037Z,68.37
2018-09-06T03:39:59.159Z,68.59
2018-09-06T03:40:30.325Z,68.65
2018-09-06T03:41:01.501Z,68.91
2018-09-06T03:41:32.616Z,68.75
2018-09-06T03:42:03.829Z,67.85
2018-09-06T03:42:34.961Z,68.41
2018-09-06T03:43:06.073Z,67.96
2018-09-06T03:43:37.268Z,68.80
2018-09-06T03:44:08.453Z,69.10
2018-09-06T03:44:39.636Z,68.05
2018-09-06T03:45:10.844Z,68.60
2018-09-06T03:45:41.951Z,68.24
2018-09-06T03:46:13.134Z,68.12
2018-09-06T03:46:44.244Z,68.60
2018-09-06T03:47:15.436Z,68.29
2018-09-06T03:47:46.555Z,68.25
2018-09-06T03:48:17.732Z,67.77
2018-09-06T03:48:48.904Z,67.97
2018-09-06T03:49:20.122Z,68.00
2018-09-06T03:49:51.296Z,67.82
2018-09-06T03:50:22.496Z,68.08
2018-09-06T03:50:53.624Z,67.90
2018-09-06T03:51:24.845Z,67.23
2018-09-06T03:51:56.027Z,67.84
2018-09-06T03:52:27.212Z,67.96
2018-09-06T03:52:58.383Z,68.04
2018-09-06T03:53:29.556Z,67.80
2018-09-06T03:54:00.720Z,67.58
2018-09-06T03:54:31.904Z,67.38
2018-09-06T03:55:03.071Z,67.61
2018-09-06T03:55:34.312Z,67.79
2018-09-06T03:56:05.487Z,67.58
2018-09-06T03:56:36.714Z,67.47
2018-09-06T03:57:07.896Z,67.51
2018-09-06T03:57:39.087Z,67.36
2018-09-06T03:58:10.266Z,67.32
2018-09-06T03:58:41.375Z,68.06
2018-09-06T03:59:12.524Z,67.93
2018-09-06T03:59:43.694Z,67.33
2018-09-06T04:00:14.835Z,68.06
2018-09-06T04:00:46.004Z,67.78
2018-09-06T04:01:17.187Z,67.37
2018-09-06T04:01:48.351Z,67.44
2018-09-06T04:02:19.473Z,67.44
2018-09-06T04:02:50.592Z,67.44
2018-09-06T04:03:21.771Z,67.24
2018-09-06T04:03:52.948Z,67.67
2018-09-06T04:04:24.212Z,67.22
2018-09-06T04:04:55.397Z,66.46
2018-09-06T04:05:26.513Z,66.62
2018-09-06T04:05:57.676Z,67.41
2018-09-06T04:06:28.840Z,67.17
2018-09-06T04:07:00.006Z,67.65
2018-09-06T04:07:31.223Z,67.59
2018-09-06T04:08:02.399Z,66.69
2018-09-06T04:08:33.586Z,67.36
2018-09-06T04:09:04.759Z,67.26
2018-09-06T04:09:35.885Z,67.08
2018-09-06T04:10:07.055Z,67.16
2018-09-06T04:10:38.181Z,66.80
2018-09-06T04:11:09.449Z,67.20
2018-09-06T04:11:40.571Z,67.03
2018-09-06T04:12:11.745Z,66.64
2018-09-06T04:12:42.867Z,66.79
2018-09-06T04:13:13.983Z,66.78
2018-09-06T04:13:45.107Z,65.97
2018-09-06T04:14:16.267Z,65.94
2018-09-06T04:14:47.433Z,65.37
2018-09-06T04:15:18.560Z,65.28
2018-09-06T04:15:49.730Z,65.02
2018-09-06T04:16:20.868Z,64.42
2018-09-06T04:16:52.056Z,63.50
2018-09-06T04:17:23.182Z,63.27
2018-09-06T04:17:54.412Z,63.12
2018-09-06T04:18:25.597Z,63.28
2018-09-06T04:18:56.716Z,62.50
2018-09-06T04:19:27.936Z,62.39
2018-09-06T04:19:59.169Z,61.14
2018-09-06T04:20:30.303Z,61.70
2018-09-06T04:21:01.490Z,60.98
2018-09-06T04:21:32.693Z,60.76
2018-09-06T04:22:03.870Z,60.78
2018-09-06T04:22:35.060Z,60.17
2018-09-06T04:23:06.236Z,60.09
2018-09-06T04:23:37.432Z,59.94
2018-09-06T04:24:08.616Z,59.24
2018-09-06T04:24:39.775Z,59.72
2018-09-06T04:25:10.905Z,59.76
2018-09-06T04:25:42.024Z,59.21
2018-09-06T04:26:13.207Z,59.01
2018-09-06T04:26:44.416Z,59.17
2018-09-06T04:27:15.564Z,59.16
2018-09-06T04:27:46.669Z,58.78
2018-09-06T04:28:17.805Z,58.41
2018-09-06T04:28:48.989Z,58.18
2018-09-06T04:29:20.125Z,57.80
2018-09-06T04:29:51.328Z,57.58
2018-09-06T04:30:22.551Z,58.18
2018-09-06T04:30:53.707Z,58.23
2018-09-06T04:31:24.882Z,57.13
2018-09-06T04:31:55.996Z,57.48
2018-09-06T04:32:27.175Z,57.34
2018-09-06T04:32:58.345Z,57.32
2018-09-06T04:33:29.573Z,56.30
2018-09-06T04:34:00.842Z,57.10
2018-09-06T04:34:31.974Z,56.06
2018-09-06T04:35:03.098Z,56.26
2018-09-06T04:35:34.370Z,56.58
2018-09-06T04:36:05.589Z,56.03
2018-09-06T04:36:36.707Z,55.77
2018-09-06T04:37:07.969Z,55.34
2018-09-06T04:37:39.145Z,56.34
2018-09-06T04:38:10.371Z,54.66
2018-09-06T04:38:41.520Z,55.25
2018-09-06T04:39:12.746Z,54.98
2018-09-06T04:39:43.920Z,55.08
2018-09-06T04:40:15.043Z,54.51
2018-09-06T04:40:46.184Z,54.50
2018-09-06T04:41:17.352Z,54.41
2018-09-06T04:41:48.464Z,54.63
2018-09-06T04:42:19.582Z,54.82
2018-09-06T04:42:50.864Z,54.73
2018-09-06T04:43:22.037Z,54.38
2018-09-06T04:43:53.263Z,54.64
2018-09-06T04:44:24.366Z,55.30
2018-09-06T04:44:55.531Z,55.32
2018-09-06T04:45:26.694Z,55.34
2018-09-06T04:45:57.872Z,55.20
2018-09-06T04:46:29.046Z,54.06
2018-09-06T04:47:00.224Z,54.25
2018-09-06T04:47:31.339Z,55.09
2018-09-06T04:48:02.518Z,55.00
2018-09-06T04:48:33.749Z,54.85
2018-09-06T04:49:04.955Z,54.34
2018-09-06T04:49:36.125Z,53.90
2018-09-06T04:50:07.273Z,54.05
2018-09-06T04:50:38.469Z,54.37
2018-09-06T04:51:09.585Z,53.62
2018-09-06T04:51:40.697Z,53.58
2018-09-06T04:52:11.863Z,52.98
2018-09-06T04:52:43.137Z,53.15
2018-09-06T04:53:14.271Z,53.73
2018-09-06T04:53:45.441Z,53.05
2018-09-06T04:54:16.552Z,52.55
2018-09-06T04:54:47.663Z,53.10
2018-09-06T04:55:18.843Z,52.32
2018-09-06T04:55:50.048Z,52.26
2018-09-06T04:56:21.277Z,52.62
2018-09-06T04:56:52.404Z,51.75
2018-09-06T04:57:23.563Z,51.96
2018-09-06T04:57:54.700Z,51.81
2018-09-06T04:58:25.947Z,52.63
2018-09-06T04:58:57.088Z,52.19
2018-09-06T04:59:28.268Z,53.08
2018-09-06T04:59:59.447Z,52.74
2018-09-06T05:00:30.566Z,52.77
2018-09-06T05:01:01.777Z,52.93
2018-09-06T05:01:32.944Z,53.09
2018-09-06T05:02:04.073Z,53.03
2018-09-06T05:02:35.197Z,52.80
2018-09-06T05:03:06.311Z,53.46
2018-09-06T05:03:37.451Z,52.34
2018-09-06T05:04:08.746Z,52.60
2018-09-06T05:04:39.847Z,52.95
2018-09-06T05:05:10.959Z,53.06
2018-09-06T05:05:42.080Z,52.80
2018-09-06T05:06:13.300Z,53.71
2018-09-06T05:06:44.444Z,52.98
2018-09-06T05:07:15.564Z,52.60
2018-09-06T05:07:46.744Z,53.29
2018-09-06T05:08:17.863Z,53.55
2018-09-06T05:08:48.980Z,53.25
2018-09-06T05:09:20.150Z,52.93
2018-09-06T05:09:51.377Z,53.26
2018-09-06T05:10:22.503Z,53.09
2018-09-06T05:10:53.674Z,52.08
2018-09-06T05:11:24.852Z,52.63
2018-09-06T05:11:55.998Z,53.11
2018-09-06T05:12:27.156Z,52.98
2018-09-06T05:12:58.273Z,53.40
2018-09-06T05:13:29.384Z,53.49
2018-09-06T05:14:00.507Z,52.94
2018-09-06T05:14:31.720Z,52.51
2018-09-06T05:15:02.901Z,53.37
2018-09-06T05:15:34.023Z,53.19
2018-09-06T05:16:05.189Z,52.56
2018-09-06T05:16:36.355Z,52.90
2018-09-06T05:17:07.538Z,53.31
2018-09-06T05:17:38.699Z,53.27
2018-09-06T05:18:09.903Z,52.54
2018-09-06T05:18:41.088Z,52.84
2018-09-06T05:19:12.256Z,52.83
2018-09-06T05:19:43.460Z,53.57
2018-09-06T05:20:14.704Z,53.29
2018-09-06T05:20:45.823Z,53.45
2018-09-06T05:21:16.988Z,53.39
2018-09-06T05:21:48.192Z,52.51
2018-09-06T05:22:19.384Z,53.08
2018-09-06T05:22:50.604Z,53.34
2018-09-06T05:23:21.781Z,53.31
2018-09-06T05:23:52.887Z,52.67
2018-09-06T05:24:24.056Z,52.69
2018-09-06T05:24:55.233Z,53.39
2018-09-06T05:25:26.453Z,54.00
2018-09-06T05:25:57.623Z,53.19
2018-09-06T05:26:28.752Z,53.11
2018-09-06T05:26:59.917Z,52.95
2018-09-06T05:27:31.031Z,53.65
2018-09-06T05:28:02.240Z,53.98
2018-09-06T05:28:33.440Z,53.62
2018-09-06T05:29:04.645Z,54.11
2018-09-06T05:29:35.804Z,54.66
2018-09-06T05:30:07.070Z,54.51
2018-09-06T05:30:38.203Z,54.27
2018-09-06T05:31:09.431Z,55.11
2018-09-06T05:31:40.553Z,55.01
2018-09-06T05:32:11.742Z,54.05
2018-09-06T05:32:42.908Z,54.55
2018-09-06T05:33:14.075Z,54.11
2018-09-06T05:33:45.309Z,54.41
2018-09-06T05:34:16.493Z,54.21
2018-09-06T05:34:47.669Z,53.01
2018-09-06T05:35:18.799Z,53.82
2018-09-06T05:35:50.022Z,53.50
2018-09-06T05:36:21.280Z,53.93
2018-09-06T05:36:52.471Z,53.59
2018-09-06T05:37:23.641Z,53.55
2018-09-06T05:37:54.753Z,53.28
2018-09-06T05:38:26.024Z,53.20
2018-09-06T05:38:57.179Z,53.31
2018-09-06T05:39:28.295Z,53.38
2018-09-06T05:39:59.416Z,52.96
2018-09-06T05:41:01.468Z,53.15
2018-09-06T05:41:32.678Z,53.23
2018-09-06T05:42:03.908Z,53.67
2018-09-06T05:42:35.026Z,53.21
2018-09-06T05:43:06.184Z,52.95
2018-09-06T05:43:37.409Z,53.08
2018-09-06T05:44:08.539Z,52.94
2018-09-06T05:44:39.760Z,52.98
2018-09-06T05:45:10.955Z,52.17
2018-09-06T05:45:42.068Z,53.25
2018-09-06T05:46:13.237Z,53.01
2018-09-06T05:46:44.359Z,53.12
2018-09-06T05:47:15.478Z,52.73
2018-09-06T05:47:46.704Z,52.33
2018-09-06T05:48:17.815Z,53.23
2018-09-06T05:48:49.041Z,52.53
2018-09-06T05:49:20.208Z,53.14
2018-09-06T05:49:51.449Z,53.35
2018-09-06T05:50:22.560Z,52.22
2018-09-06T05:50:53.720Z,52.79
2018-09-06T05:51:24.847Z,53.54
2018-09-06T05:51:56.022Z,53.43
2018-09-06T05:52:27.148Z,53.10
2018-09-06T05:52:58.292Z,53.68
2018-09-06T05:53:29.433Z,52.97
2018-09-06T05:54:00.672Z,53.30
2018-09-06T05:54:31.852Z,53.97
2018-09-06T05:55:02.962Z,53.56
2018-09-06T05:55:34.132Z,54.05
2018-09-06T05:56:05.265Z,53.26
2018-09-06T05:56:36.522Z,53.37
2018-09-06T05:57:07.640Z,54.00
2018-09-06T05:57:38.818Z,53.72
2018-09-06T05:58:09.996Z,54.11
2018-09-06T05:58:41.187Z,53.50
2018-09-06T05:59:12.369Z,53.55
2018-09-06T05:59:43.604Z,53.86
2018-09-06T06:00:14.825Z,53.87
2018-09-06T06:00:45.949Z,54.00
2018-09-06T06:01:17.077Z,53.74
2018-09-06T06:01:48.250Z,54.21
2018-09-06T06:02:19.437Z,53.15
2018-09-06T06:02:50.562Z,53.95
2018-09-06T06:03:21.783Z,53.74
2018-09-06T06:03:52.911Z,53.56
2018-09-06T06:04:24.077Z,52.88
2018-09-06T06:04:55.195Z,53.62
2018-09-06T06:05:26.460Z,54.04
2018-09-06T06:05:57.540Z,53.95
2018-09-06T06:06:28.669Z,54.19
2018-09-06T06:06:59.786Z,53.81
2018-09-06T06:07:31.020Z,54.44
2018-09-06T06:08:02.206Z,53.12
2018-09-06T06:08:33.437Z,53.85
2018-09-06T06:09:04.572Z,53.85
2018-09-06T06:09:35.786Z,53.94
2018-09-06T06:10:06.921Z,53.59
2018-09-06T06:10:38.142Z,53.77
2018-09-06T06:11:09.373Z,53.76
2018-09-06T06:11:40.635Z,53.59
2018-09-06T06:12:11.773Z,53.81
2018-09-06T06:12:42.947Z,53.94
2018-09-06T06:13:14.125Z,53.77
2018-09-06T06:13:45.349Z,53.54
2018-09-06T06:14:16.540Z,53.19
2018-09-06T06:14:47.703Z,53.63
2018-09-06T06:15:18.868Z,52.68
2018-09-06T06:15:50.059Z,52.58
2018-09-06T06:16:21.213Z,52.28
2018-09-06T06:16:52.472Z,52.54
2018-09-06T06:17:23.603Z,53.13
2018-09-06T06:17:54.713Z,52.44
2018-09-06T06:18:26.740Z,53.57
2018-09-06T06:18:57.867Z,52.40
2018-09-06T06:19:29.026Z,53.28
2018-09-06T06:20:00.243Z,53.38
2018-09-06T06:20:31.318Z,52.83
2018-09-06T06:21:02.467Z,52.01
2018-09-06T06:21:33.571Z,52.08
2018-09-06T06:22:04.736Z,52.09
2018-09-06T06:22:35.970Z,52.69
2018-09-06T06:23:07.097Z,52.93
2018-09-06T06:23:38.271Z,52.39
2018-09-06T06:24:09.445Z,51.85
2018-09-06T06:24:40.559Z,52.05
2018-09-06T06:25:11.678Z,52.94
2018-09-06T06:25:42.832Z,51.84
2018-09-06T06:26:13.944Z,52.11
2018-09-06T06:26:45.116Z,52.17
2018-09-06T06:27:16.378Z,50.62
2018-09-06T06:27:47.572Z,51.74
2018-09-06T06:28:18.679Z,51.94
2018-09-06T06:28:49.852Z,50.87
2018-09-06T06:29:21.036Z,50.54
2018-09-06T06:29:52.157Z,50.87
2018-09-06T06:30:23.333Z,50.35
2018-09-06T06:30:54.473Z,50.69
2018-09-06T06:31:25.589Z,50.06
2018-09-06T06:31:56.825Z,50.40
2018-09-06T06:32:27.931Z,50.99
2018-09-06T06:32:59.077Z,51.87
2018-09-06T06:33:30.316Z,51.30
2018-09-06T06:34:01.485Z,52.05
2018-09-06T06:34:32.585Z,51.43
2018-09-06T06:35:03.705Z,50.91
2018-09-06T06:35:34.830Z,50.61
2018-09-06T06:36:05.989Z,51.07
2018-09-06T06:36:37.257Z,51.31
2018-09-06T06:37:08.489Z,52.06
2018-09-06T06:37:39.742Z,50.45
2018-09-06T06:38:10.908Z,51.01
2018-09-06T06:38:42.023Z,51.26
2018-09-06T06:39:13.128Z,50.39
2018-09-06T06:39:44.392Z,51.43
2018-09-06T06:40:15.583Z,51.06
2018-09-06T06:40:46.701Z,51.50
2018-09-06T06:41:17.966Z,50.39
2018-09-06T06:41:49.124Z,50.95